createdAt,value
2018-12-05T00:00:10.228Z,98138.08
2018-12-05T00:05:14.035Z,98136.14
2018-12-05T00:10:17.159Z,98144.23
2018-12-05T00:15:20.502Z,98140.25
2018-12-05T00:20:23.645Z,98139.16
2018-12-05T00:25:26.786Z,98140.97
2018-12-05T00:30:29.861Z,98144.57
2018-12-05T00:35:33.262Z,98144.56
2018-12-05T00:40:36.372Z,98154.65
2018-12-05T00:45:39.642Z,98148.36
2018-12-05T00:50:42.843Z,98154.67
2018-12-05T00:55:46.108Z,98159.90
2018-12-05T01:00:49.327Z,98147.99
2018-12-05T01:05:52.464Z,98142.06
2018-12-05T01:10:55.735Z,98130.74
2018-12-05T01:15:58.982Z,98134.52
2018-12-05T01:21:02.535Z,98133.09
2018-12-05T01:26:05.833Z,98138.63
2018-12-05T01:31:08.959Z,98135.02
2018-12-05T01:36:12.684Z,98137.17
2018-12-05T01:41:16.670Z,98138.98
2018-12-05T01:46:19.794Z,98149.59
2018-12-05T01:51:22.927Z,98150.86
2018-12-05T01:56:26.979Z,98145.47
2018-12-05T02:01:30.184Z,98143.50
2018-12-05T02:06:33.560Z,98151.97
2018-12-05T02:11:37.648Z,98148.77
2018-12-05T02:16:41.480Z,98150.54
2018-12-05T02:21:44.620Z,98151.63
2018-12-05T02:26:47.717Z,98151.60
2018-12-05T02:31:50.868Z,98161.30
2018-12-05T02:36:53.986Z,98161.98
2018-12-05T02:41:57.179Z,98166.86
2018-12-05T02:47:00.430Z,98168.47
2018-12-05T02:52:03.727Z,98167.58
2018-12-05T02:57:07.312Z,98169.48
2018-12-05T03:02:10.386Z,98175.25
2018-12-05T03:07:14.581Z,98175.58
2018-12-05T03:12:17.882Z,98180.37
2018-12-05T03:17:21.125Z,98182.13
2018-12-05T03:22:24.169Z,98185.45
2018-12-05T03:27:27.744Z,98184.63
2018-12-05T03:32:30.940Z,98183.44
2018-12-05T03:37:34.214Z,98191.28
2018-12-05T03:42:37.301Z,98192.80
2018-12-05T03:47:40.610Z,98195.37
2018-12-05T03:52:43.657Z,98203.13
2018-12-05T03:57:47.435Z,98207.58
2018-12-05T04:02:50.536Z,98215.50
2018-12-05T04:07:53.590Z,98215.52
2018-12-05T04:12:56.684Z,98216.81
2018-12-05T04:17:59.893Z,98224.78
2018-12-05T04:23:03.100Z,98236.67
2018-12-05T04:28:06.376Z,98237.39
2018-12-05T04:33:09.483Z,98243.25
2018-12-05T04:38:12.821Z,98255.70
2018-12-05T04:43:16.066Z,98236.06
2018-12-05T04:48:19.297Z,98242.22
2018-12-05T04:53:22.480Z,98250.13
2018-12-05T04:58:25.680Z,98258.09
2018-12-05T05:03:28.799Z,98272.59
2018-12-05T05:08:32.064Z,98275.81
2018-12-05T05:13:35.242Z,98280.09
2018-12-05T05:18:38.502Z,98297.16
2018-12-05T05:23:41.707Z,98300.00
2018-12-05T05:28:44.981Z,98295.91
2018-12-05T05:33:48.132Z,98296.30
2018-12-05T05:38:51.223Z,98300.30
2018-12-05T05:43:54.335Z,98295.04
2018-12-05T05:48:57.573Z,98299.84
2018-12-05T05:54:00.629Z,98305.52
2018-12-05T05:59:04.032Z,98314.00
2018-12-05T06:04:07.218Z,98303.73
2018-12-05T06:09:10.429Z,98319.42
2018-12-05T06:14:13.508Z,98323.41
2018-12-05T06:19:16.740Z,98313.84
2018-12-05T06:24:19.804Z,98330.73
2018-12-05T06:29:22.884Z,98321.80
2018-12-05T06:34:25.980Z,98328.66
2018-12-05T06:39:29.119Z,98330.09
2018-12-05T06:44:32.300Z,98331.48
2018-12-05T06:49:35.473Z,98342.78
2018-12-05T06:54:38.633Z,98325.11
2018-12-05T06:59:41.816Z,98346.63
2018-12-05T07:04:44.910Z,98333.66
2018-12-05T07:09:48.112Z,98346.11
2018-12-05T07:14:51.337Z,98343.23
2018-12-05T07:19:54.543Z,98325.50
2018-12-05T07:24:57.709Z,98356.52
2018-12-05T07:30:00.740Z,98348.06
2018-12-05T07:35:04.302Z,98338.61
2018-12-05T07:40:07.682Z,98351.04
2018-12-05T07:45:11.539Z,98371.59
2018-12-05T07:50:15.882Z,98358.75
2018-12-05T07:55:19.430Z,98363.11
2018-12-05T08:00:22.670Z,98404.44
2018-12-05T08:05:26.414Z,98381.42
2018-12-05T08:10:29.519Z,98386.28
2018-12-05T08:15:32.650Z,98376.18
2018-12-05T08:20:36.234Z,98388.27
2018-12-05T08:25:40.834Z,98387.67
2018-12-05T08:30:44.355Z,98370.52
2018-12-05T08:35:47.488Z,98367.23
2018-12-05T08:40:50.529Z,98385.79
2018-12-05T08:45:53.696Z,98356.90
2018-12-05T08:50:57.059Z,98392.66
2018-12-05T08:56:00.318Z,98352.63
2018-12-05T09:01:03.644Z,98365.75
2018-12-05T09:06:06.741Z,98350.73
2018-12-05T09:11:10.096Z,98370.89
2018-12-05T09:16:14.498Z,98340.84
2018-12-05T09:21:18.391Z,98343.41
2018-12-05T09:26:21.793Z,98365.75
2018-12-05T09:31:24.963Z,98349.38
2018-12-05T09:36:28.294Z,98366.30
2018-12-05T09:41:31.427Z,98378.89
2018-12-05T09:46:34.561Z,98382.73
2018-12-05T09:51:37.878Z,98356.40
2018-12-05T09:56:41.028Z,98382.59
2018-12-05T10:01:44.196Z,98413.98
2018-12-05T10:06:47.479Z,98409.48
2018-12-05T10:11:50.636Z,98406.42
2018-12-05T10:16:53.907Z,98370.91
2018-12-05T10:21:57.320Z,98364.98
2018-12-05T10:27:00.519Z,98401.35
2018-12-05T10:32:05.093Z,98381.02
2018-12-05T10:37:09.004Z,98374.70
2018-12-05T10:42:12.509Z,98421.01
2018-12-05T10:47:15.598Z,98377.95
2018-12-05T10:52:18.864Z,98437.60
2018-12-05T10:57:22.112Z,98432.73
2018-12-05T11:02:30.932Z,98398.69
2018-12-05T11:07:39.503Z,98384.99
2018-12-05T11:12:48.101Z,98408.97
2018-12-05T11:17:56.818Z,98396.88
2018-12-05T11:23:05.391Z,98444.59
2018-12-05T11:28:08.666Z,98424.97
2018-12-05T11:33:11.875Z,98455.89
2018-12-05T11:38:15.327Z,98480.71
2018-12-05T11:43:18.854Z,98461.37
2018-12-05T11:48:22.112Z,98427.15
2018-12-05T11:53:25.368Z,98405.91
2018-12-05T11:58:28.496Z,98422.86
2018-12-05T12:03:31.662Z,98422.70
2018-12-05T12:08:36.912Z,98422.50
2018-12-05T12:13:40.044Z,98469.75
2018-12-05T12:18:43.185Z,98429.84
2018-12-05T12:23:46.441Z,98449.59
2018-12-05T12:28:49.603Z,98453.48
2018-12-05T12:33:52.823Z,98468.59
2018-12-05T12:38:56.047Z,98450.31
2018-12-05T12:43:59.192Z,98461.19
2018-12-05T12:49:02.326Z,98433.64
2018-12-05T12:54:05.711Z,98435.59
2018-12-05T12:59:08.839Z,98447.35
2018-12-05T13:04:11.969Z,98436.89
2018-12-05T13:09:15.048Z,98453.15
2018-12-05T13:14:18.243Z,98497.75
2018-12-05T13:19:21.345Z,98456.33
2018-12-05T13:24:24.758Z,98463.27
2018-12-05T13:29:28.672Z,98478.35
2018-12-05T13:34:31.800Z,98489.25
2018-12-05T13:39:35.001Z,98482.34
2018-12-05T13:44:39.280Z,98496.58
2018-12-05T13:49:42.470Z,98511.73
2018-12-05T13:54:45.657Z,98527.45
2018-12-05T13:59:48.752Z,98515.21
2018-12-05T14:04:52.784Z,98517.53
2018-12-05T14:09:55.857Z,98525.38
2018-12-05T14:14:59.072Z,98575.86
2018-12-05T14:20:02.433Z,98542.08
2018-12-05T14:25:07.703Z,98567.48
2018-12-05T14:30:11.020Z,98593.25
2018-12-05T14:35:14.151Z,98626.00
2018-12-05T14:40:17.613Z,98592.57
2018-12-05T14:45:20.860Z,98627.42
2018-12-05T14:50:25.321Z,98617.03
2018-12-05T14:55:28.760Z,98599.92
2018-12-05T15:00:31.864Z,98607.41
2018-12-05T15:05:34.970Z,98622.33
2018-12-05T15:10:38.218Z,98621.13
2018-12-05T15:15:41.343Z,98615.89
2018-12-05T15:20:44.458Z,98645.73
2018-12-05T15:25:47.851Z,98634.13
2018-12-05T15:30:51.172Z,98631.71
2018-12-05T15:35:54.329Z,98636.95
2018-12-05T15:40:57.540Z,98635.42
2018-12-05T15:46:00.687Z,98640.58
2018-12-05T15:51:03.889Z,98634.88
2018-12-05T15:56:07.152Z,98658.73
2018-12-05T16:01:10.403Z,98668.23
2018-12-05T16:06:13.676Z,98674.22
2018-12-05T16:11:16.991Z,98700.42
2018-12-05T16:16:20.124Z,98678.72
2018-12-05T16:21:23.356Z,98687.91
2018-12-05T16:26:26.648Z,98712.09
2018-12-05T16:31:29.809Z,98728.45
2018-12-05T16:36:33.826Z,98718.42
2018-12-05T16:41:37.171Z,98725.03
2018-12-05T16:46:41.504Z,98723.78
2018-12-05T16:51:44.707Z,98736.44
2018-12-05T16:56:47.910Z,98735.44
2018-12-05T17:01:51.197Z,98740.16
2018-12-05T17:06:54.412Z,98738.42
2018-12-05T17:11:57.545Z,98749.71
2018-12-05T17:17:00.772Z,98754.38
2018-12-05T17:22:04.148Z,98752.28
2018-12-05T17:27:07.565Z,98762.17
2018-12-05T17:32:10.701Z,98746.70
2018-12-05T17:37:13.967Z,98754.20
2018-12-05T17:42:17.308Z,98761.33
2018-12-05T17:47:20.646Z,98756.59
2018-12-05T17:52:23.792Z,98760.18
2018-12-05T17:57:27.312Z,98757.54
2018-12-05T18:02:30.642Z,98771.83
2018-12-05T18:07:33.761Z,98772.69
2018-12-05T18:12:37.448Z,98773.55
2018-12-05T18:17:40.557Z,98784.20
2018-12-05T18:22:44.084Z,98792.14
2018-12-05T18:27:47.358Z,98787.56
2018-12-05T18:32:50.498Z,98800.64
2018-12-05T18:37:53.752Z,98803.87
2018-12-05T18:42:56.936Z,98818.95
2018-12-05T18:48:01.069Z,98821.71
2018-12-05T18:53:04.147Z,98831.49
2018-12-05T18:58:07.477Z,98833.84
2018-12-05T19:03:10.599Z,98844.77
2018-12-05T19:08:13.789Z,98852.44
2018-12-05T19:13:17.150Z,98863.77
2018-12-05T19:18:20.470Z,98864.05
2018-12-05T19:23:23.616Z,98868.33
2018-12-05T19:28:27.116Z,98873.81
2018-12-05T19:33:30.364Z,98880.72
2018-12-05T19:38:33.483Z,98888.31
2018-12-05T19:43:36.527Z,98880.16
2018-12-05T19:48:39.933Z,98896.56
2018-12-05T19:53:43.136Z,98903.12
2018-12-05T19:58:46.465Z,98906.98
2018-12-05T20:03:49.671Z,98913.41
2018-12-05T20:08:52.843Z,98922.84
2018-12-05T20:13:56.080Z,98921.71
2018-12-05T20:18:59.130Z,98934.88
2018-12-05T20:24:02.360Z,98940.25
2018-12-05T20:29:06.955Z,98943.14
2018-12-05T20:34:10.670Z,98954.73
2018-12-05T20:39:14.133Z,98959.48
2018-12-05T20:44:17.295Z,98963.91
2018-12-05T20:49:20.582Z,98970.75
2018-12-05T20:54:23.940Z,98965.06
2018-12-05T20:59:27.219Z,98956.59
2018-12-05T21:04:30.558Z,98966.67
2018-12-05T21:09:33.708Z,98984.97
2018-12-05T21:14:36.988Z,98982.61
2018-12-05T21:19:40.325Z,98985.41
2018-12-05T21:24:43.567Z,99000.49
2018-12-05T21:29:46.813Z,99003.66
2018-12-05T21:34:49.872Z,99000.90
2018-12-05T21:39:53.207Z,98999.70
2018-12-05T21:44:56.419Z,99011.67
2018-12-05T21:49:59.715Z,99012.83
2018-12-05T21:55:03.259Z,99013.97
2018-12-05T22:00:09.952Z,99010.07
2018-12-05T22:05:13.779Z,99019.44
2018-12-05T22:10:16.853Z,99030.49
2018-12-05T22:15:20.139Z,99030.59
2018-12-05T22:20:23.247Z,99036.05
2018-12-05T22:25:26.372Z,99036.95
2018-12-05T22:30:29.701Z,99048.57
2018-12-05T22:35:33.026Z,99041.77
2018-12-05T22:40:36.148Z,99043.71
2018-12-05T22:45:39.434Z,99038.92
2018-12-05T22:50:42.594Z,99032.21
2018-12-05T22:55:45.850Z,99034.46
2018-12-05T23:00:54.261Z,99026.50
2018-12-05T23:05:57.597Z,99047.21
2018-12-05T23:11:02.177Z,99036.35
2018-12-05T23:16:05.584Z,99036.00
2018-12-05T23:21:08.709Z,99028.95
2018-12-05T23:26:11.791Z,99028.16
2018-12-05T23:31:14.965Z,99039.30
2018-12-05T23:36:18.520Z,99040.41
2018-12-05T23:41:21.672Z,99033.27
2018-12-05T23:46:24.785Z,99040.34
2018-12-05T23:51:27.969Z,99045.90
2018-12-05T23:56:31.104Z,99056.80
